Time;durP1;ratioP1;P1;durP2;ratioP2;P2;SDS_P1;SDS_P2;PMS_P1;PMS_P2;Temp;Humidity;BMP_temperature;BMP_pressure;BME280_temperature;BME280_humidity;BME280_pressure;Samples;Min_cycle;Max_cycle;Signal;HPM_P1;HPM_P2
2022/12/17 13:06:13;;;;;;;;;75.25;56.25;;;;;7.84;68.89;99818.47;4985132;28;8848;-86
2022/12/17 13:08:42;;;;;;;;;78.00;60.50;;;;;7.70;69.65;99816.53;4994860;28;8881;-83
2022/12/17 13:11:28;;;;;;;;;71.00;54.00;;;;;7.25;69.35;99827.91;4994780;28;8855;-84
2022/12/17 13:14:05;;;;;;;;;70.75;59.00;;;;;7.40;70.64;99835.97;5012180;28;8852;-83
2022/12/17 13:16:48;;;;;;;;;74.25;59.25;;;;;7.63;69.81;99840.66;5011255;28;8842;-82
2022/12/17 13:19:31;;;;;;;;;76.00;58.00;;;;;7.84;68.20;99852.22;5011335;28;9649;-84
2022/12/17 13:22:11;;;;;;;;;75.00;58.75;;;;;8.31;67.51;99852.03;4995201;28;8840;-80
2022/12/17 13:24:40;;;;;;;;;74.75;59.25;;;;;8.29;67.11;99856.34;5011537;28;8884;-86
2022/12/17 13:27:29;;;;;;;;;69.75;56.75;;;;;7.79;66.96;99863.41;5031012;28;8916;-83
2022/12/17 13:29:58;;;;;;;;;81.75;62.50;;;;;7.25;69.31;99873.75;5014170;28;8896;-82
2022/12/17 13:32:33;;;;;;;;;80.75;62.00;;;;;6.99;70.49;99875.00;5015275;28;8872;-84
2022/12/17 13:35:21;;;;;;;;;81.50;64.00;;;;;6.63;71.32;99890.69;5015064;28;8870;-84
2022/12/17 13:38:01;;;;;;;;;65.75;53.75;;;;;6.61;71.29;99895.81;5017328;28;8862;-84
2022/12/17 13:40:42;;;;;;;;;69.50;55.25;;;;;6.39;71.50;99902.28;4994951;28;8855;-82
2022/12/17 13:43:17;;;;;;;;;74.00;58.25;;;;;6.16;72.02;99895.69;5011005;28;8862;-84
2022/12/17 13:45:46;;;;;;;;;74.75;58.75;;;;;6.02;73.47;99904.00;4994227;28;8866;-83
2022/12/17 13:48:23;;;;;;;;;69.50;56.50;;;;;5.72;73.11;99913.59;4993512;28;8830;-83
2022/12/17 13:50:58;;;;;;;;;83.00;65.67;;;;;6.02;72.88;99909.19;4994365;28;8878;-82
2022/12/17 13:53:32;;;;;;;;;78.33;62.67;;;;;6.17;72.97;99921.63;4994408;28;9128;-84
2022/12/17 13:56:01;;;;;;;;;72.75;57.50;;;;;6.00;72.60;99926.41;4996899;28;8947;-83
2022/12/17 13:58:33;;;;;;;;;76.25;62.00;;;;;5.88;73.51;99923.50;5013350;28;8884;-83
2022/12/17 14:01:07;;;;;;;;;84.75;61.00;;;;;5.83;73.63;99928.53;4998232;28;8868;-84
2022/12/17 14:03:36;;;;;;;;;73.50;54.00;;;;;6.18;73.65;99933.75;4997990;28;8849;-82
2022/12/17 14:06:32;;;;;;;;;77.00;61.25;;;;;6.63;72.55;99935.63;4973875;28;8970;-82
2022/12/17 14:09:02;;;;;;;;;73.25;59.00;;;;;7.01;70.93;99939.84;5010951;28;8899;-81
2022/12/17 14:14:31;;;;;;;;;84.33;64.33;;;;;6.70;70.77;99939.22;4951756;28;8861;-85
2022/12/17 14:17:00;;;;;;;;;77.50;62.00;;;;;6.68;71.30;99945.22;4936780;28;9119;-84
2022/12/17 14:19:32;;;;;;;;;79.75;60.00;;;;;7.06;70.98;99938.22;4970555;28;8870;-83
2022/12/17 14:22:03;;;;;;;;;80.00;61.75;;;;;6.77;70.98;99954.06;4954749;28;8867;-84
2022/12/17 14:24:32;;;;;;;;;78.25;62.75;;;;;6.68;71.47;99950.41;4952730;28;8897;-81
2022/12/17 14:27:01;;;;;;;;;75.50;58.50;;;;;6.00;72.38;99952.28;4938835;28;8887;-84
2022/12/17 14:29:32;;;;;;;;;78.75;61.50;;;;;6.00;72.87;99960.06;4955604;28;9692;-81
2022/12/17 14:32:04;;;;;;;;;73.75;58.50;;;;;6.08;71.73;99964.56;4935636;28;8882;-85
2022/12/17 14:34:41;;;;;;;;;78.75;63.50;;;;;5.88;71.76;99961.44;4914230;29;8885;-83
2022/12/17 14:37:21;;;;;;;;;74.25;58.00;;;;;5.63;72.97;99963.38;4918122;29;10491;-81
2022/12/17 14:39:55;;;;;;;;;75.75;59.00;;;;;5.66;72.95;99977.28;4922937;29;8886;-81
2022/12/17 14:42:28;;;;;;;;;81.50;61.75;;;;;5.65;73.14;99979.81;4937290;29;8858;-84
2022/12/17 14:44:59;;;;;;;;;90.67;72.00;;;;;5.79;73.53;99986.25;4936336;29;8862;-82
2022/12/17 14:47:30;;;;;;;;;82.25;62.75;;;;;5.82;73.42;99990.63;4922889;29;9314;-81
2022/12/17 14:50:03;;;;;;;;;72.25;57.50;;;;;5.82;72.26;99999.28;4978143;28;8877;-82
2022/12/17 14:52:52;;;;;;;;;73.00;59.00;;;;;5.82;72.53;99998.38;4979066;28;9651;-81
2022/12/17 14:55:25;;;;;;;;;71.25;58.25;;;;;5.89;72.11;100002.88;5015627;28;9745;-82
2022/12/17 14:58:18;;;;;;;;;75.00;60.00;;;;;5.68;72.28;99998.03;4957559;28;9695;-81
2022/12/17 15:00:51;;;;;;;;;66.75;53.50;;;;;5.73;72.39;100008.47;4957308;28;8907;-83
2022/12/17 15:03:24;;;;;;;;;74.50;58.25;;;;;5.95;72.10;100017.69;4967786;28;8853;-80
2022/12/17 15:05:58;;;;;;;;;78.50;62.50;;;;;5.97;71.27;100016.06;4960822;28;8877;-82
2022/12/17 15:08:31;;;;;;;;;76.25;60.75;;;;;6.20;71.83;100016.63;4975089;28;8894;-81
2022/12/17 15:11:00;;;;;;;;;80.25;60.75;;;;;5.98;71.57;100021.28;4941232;28;8864;-81
2022/12/17 15:13:29;;;;;;;;;89.67;70.33;;;;;5.90;72.68;100027.94;4971263;28;8873;-83
2022/12/17 15:15:58;;;;;;;;;81.75;63.00;;;;;6.02;71.56;100030.00;4977565;28;9433;-81
2022/12/17 15:18:26;;;;;;;;;79.25;62.00;;;;;5.74;72.64;100024.06;4957382;28;8889;-81
2022/12/17 15:20:55;;;;;;;;;73.00;57.25;;;;;5.60;72.04;100035.75;4990742;28;8895;-80
2022/12/17 15:23:24;;;;;;;;;70.75;54.50;;;;;5.69;73.09;100035.13;4973728;28;8895;-81
2022/12/17 15:25:55;;;;;;;;;77.75;60.75;;;;;5.88;71.94;100046.84;4958888;28;8865;-82
2022/12/17 15:28:26;;;;;;;;;75.75;60.00;;;;;5.99;71.12;100051.50;4957443;28;8950;-83
2022/12/17 15:30:55;;;;;;;;;74.00;58.75;;;;;6.02;71.25;100061.06;4973981;28;8853;-81
2022/12/17 15:33:24;;;;;;;;;68.50;56.00;;;;;6.44;70.69;100065.56;4974189;28;8861;-82
2022/12/17 15:35:53;;;;;;;;;75.25;57.00;;;;;6.24;70.54;100050.41;4990690;28;8861;-82
2022/12/17 15:38:22;;;;;;;;;76.50;60.25;;;;;6.44;68.63;100061.25;4959180;28;8857;-84
2022/12/17 15:40:51;;;;;;;;;71.50;56.00;;;;;6.67;69.65;100055.75;4959673;28;8876;-80
2022/12/17 15:43:21;;;;;;;;;77.50;62.75;;;;;6.71;67.90;100069.66;4933953;28;8868;-82
2022/12/17 15:45:51;;;;;;;;;76.75;61.75;;;;;6.38;70.37;100073.19;4962990;28;8858;-83
2022/12/17 15:48:22;;;;;;;;;85.33;66.00;;;;;6.50;69.28;100085.56;4982901;28;8881;-81
2022/12/17 15:50:51;;;;;;;;;72.00;60.00;;;;;6.91;68.29;100078.78;5015209;28;9037;-81
2022/12/17 15:53:19;;;;;;;;;84.50;62.00;;;;;6.80;69.01;100088.00;4980756;28;8869;-83
2022/12/17 15:55:48;;;;;;;;;78.00;61.50;;;;;7.15;67.52;100086.22;4994449;28;9690;-84
2022/12/17 15:58:17;;;;;;;;;77.50;62.50;;;;;7.33;65.86;100101.31;4994910;28;8951;-81
2022/12/17 16:00:48;;;;;;;;;74.50;58.50;;;;;6.69;67.10;100110.22;5000593;28;8879;-80
2022/12/17 16:03:17;;;;;;;;;80.25;60.50;;;;;6.72;67.48;100102.53;5016679;28;8851;-81
2022/12/17 16:05:46;;;;;;;;;55.00;43.00;;;;;6.23;69.14;100110.81;5032268;28;8879;-82
2022/12/17 16:08:15;;;;;;;;;77.00;57.50;;;;;6.48;68.38;100115.75;5001037;28;8904;-82
2022/12/17 16:10:44;;;;;;;;;80.25;60.25;;;;;6.25;68.68;100119.50;5011745;28;8850;-83
2022/12/17 16:13:14;;;;;;;;;77.75;61.50;;;;;6.20;68.62;100126.28;5014528;28;8866;-82
2022/12/17 16:15:43;;;;;;;;;81.25;64.25;;;;;6.04;69.19;100132.75;5010103;28;8858;-82
2022/12/17 16:18:15;;;;;;;;;75.75;61.75;;;;;6.29;67.89;100140.28;5029178;28;8870;-83
2022/12/17 16:20:45;;;;;;;;;85.00;65.50;;;;;6.32;68.46;100141.25;4997396;28;9014;-81
2022/12/17 16:23:14;;;;;;;;;80.50;60.00;;;;;6.21;68.38;100148.72;5030111;28;10159;-82
2022/12/17 16:25:43;;;;;;;;;78.75;62.50;;;;;6.18;68.43;100156.44;5062037;28;8844;-81
2022/12/17 16:28:11;;;;;;;;;72.75;59.25;;;;;6.33;68.34;100149.91;5026190;28;8882;-83
2022/12/17 16:30:40;;;;;;;;;78.00;60.25;;;;;6.05;67.71;100163.00;4993114;28;8854;-83
2022/12/17 16:33:09;;;;;;;;;71.50;57.25;;;;;5.97;69.25;100167.09;4993349;28;8968;-83
2022/12/17 16:35:39;;;;;;;;;66.50;53.00;;;;;6.28;68.74;100170.50;4993234;28;8854;-80
2022/12/17 16:38:08;;;;;;;;;76.25;62.00;;;;;6.72;67.88;100164.72;5021525;28;8851;-83
2022/12/17 16:40:39;;;;;;;;;75.00;55.75;;;;;6.37;67.26;100149.13;5045475;28;8913;-82
2022/12/17 16:43:07;;;;;;;;;66.50;54.50;;;;;5.91;68.99;100158.22;4995122;28;8863;-83
2022/12/17 16:45:47;;;;;;;;;76.00;58.75;;;;;6.17;67.87;100164.16;5029234;28;8851;-82
2022/12/17 16:48:18;;;;;;;;;76.25;59.50;;;;;5.90;69.29;100164.22;4996244;28;8889;-83
2022/12/17 16:50:49;;;;;;;;;77.75;62.50;;;;;5.98;69.08;100176.59;5045711;28;9632;-82
2022/12/17 16:53:19;;;;;;;;;68.75;53.00;;;;;5.88;69.02;100179.72;5010095;28;8851;-82
2022/12/17 16:55:49;;;;;;;;;68.25;56.25;;;;;6.17;68.70;100187.47;5041575;28;8935;-84
2022/12/17 16:58:18;;;;;;;;;74.50;60.25;;;;;5.96;69.78;100190.34;5021745;28;8937;-84
2022/12/17 17:00:54;;;;;;;;;75.50;60.50;;;;;5.93;69.90;100188.47;5014604;28;8863;-83
2022/12/17 17:03:22;;;;;;;;;81.50;63.00;;;;;6.22;69.32;100197.13;5017109;28;8847;-82
2022/12/17 17:05:53;;;;;;;;;75.00;61.00;;;;;5.66;70.05;100212.72;5032554;28;9715;-82
2022/12/17 17:08:22;;;;;;;;;81.50;59.50;;;;;5.58;70.75;100211.63;5032314;28;8859;-83
2022/12/17 17:10:51;;;;;;;;;76.50;62.50;;;;;5.85;70.27;100218.47;5031219;28;9022;-81
2022/12/17 17:13:20;;;;;;;;;74.75;59.00;;;;;5.53;71.18;100212.31;5032222;28;8851;-83
2022/12/17 17:15:49;;;;;;;;;76.75;57.75;;;;;5.44;71.69;100216.41;5011676;28;8870;-82
2022/12/17 17:18:18;;;;;;;;;80.75;63.25;;;;;5.49;71.40;100226.00;4995911;28;9031;-81
2022/12/17 17:20:54;;;;;;;;;78.00;61.25;;;;;5.59;70.21;100235.78;5005388;28;8989;-82
2022/12/17 17:23:22;;;;;;;;;76.25;61.00;;;;;5.44;70.15;100234.50;5003394;28;8878;-83
2022/12/17 17:25:51;;;;;;;;;79.25;61.50;;;;;5.50;69.77;100240.66;5036483;28;8870;-83
2022/12/17 17:28:26;;;;;;;;;70.50;56.00;;;;;5.46;70.05;100237.09;5002446;28;8865;-81
2022/12/17 17:30:58;;;;;;;;;75.50;58.50;;;;;5.50;70.28;100238.97;5040710;28;8916;-81
2022/12/17 17:33:29;;;;;;;;;70.25;56.25;;;;;5.57;69.53;100242.63;5022692;28;8858;-81
2022/12/17 17:36:04;;;;;;;;;69.75;57.75;;;;;5.30;70.30;100243.50;5029607;28;8846;-83
2022/12/17 17:38:34;;;;;;;;;76.00;62.25;;;;;5.54;70.91;100256.34;5027487;28;8985;-81
2022/12/17 17:41:04;;;;;;;;;77.25;59.00;;;;;5.59;70.72;100256.47;4994788;28;8975;-83
2022/12/17 17:43:33;;;;;;;;;74.50;59.50;;;;;5.66;69.68;100267.06;5042046;28;8855;-82
2022/12/17 17:46:06;;;;;;;;;74.00;59.00;;;;;5.77;69.01;100269.13;5015302;28;8944;-83
2022/12/17 17:48:36;;;;;;;;;88.67;68.00;;;;;5.73;70.14;100272.41;5014939;28;9593;-82
2022/12/17 17:51:12;;;;;;;;;73.50;60.25;;;;;5.66;68.96;100276.53;5052570;28;9118;-83
2022/12/17 17:53:41;;;;;;;;;75.25;63.00;;;;;5.78;69.19;100284.66;5032012;28;8883;-81
2022/12/17 17:56:15;;;;;;;;;76.00;60.00;;;;;5.71;69.85;100279.25;5033197;28;8840;-83
2022/12/17 17:58:47;;;;;;;;;75.75;59.75;;;;;5.54;69.87;100281.31;5051614;28;8882;-82
2022/12/17 18:01:19;;;;;;;;;68.75;57.00;;;;;5.60;69.88;100290.16;5014608;28;8855;-82
2022/12/17 18:03:48;;;;;;;;;79.50;62.00;;;;;5.73;69.99;100288.84;5031138;28;9573;-82
2022/12/17 18:06:19;;;;;;;;;72.00;58.25;;;;;5.70;69.11;100293.03;5064128;28;8871;-82
2022/12/17 18:08:48;;;;;;;;;67.25;56.25;;;;;5.63;70.00;100297.13;5031336;28;8970;-83
2022/12/17 18:11:20;;;;;;;;;72.50;57.75;;;;;5.68;70.37;100308.53;5031276;28;8886;-83
2022/12/17 18:13:56;;;;;;;;;75.50;60.00;;;;;6.32;69.19;100308.75;5028540;28;8921;-81
2022/12/17 18:16:28;;;;;;;;;73.00;58.75;;;;;6.76;67.41;100302.19;5045575;28;8870;-82
2022/12/17 18:18:59;;;;;;;;;73.25;59.25;;;;;6.22;67.63;100299.84;5064292;28;8847;-82
2022/12/17 18:21:31;;;;;;;;;78.00;61.25;;;;;6.13;68.98;100303.03;5030245;28;8879;-83
2022/12/17 18:24:02;;;;;;;;;81.67;62.00;;;;;6.16;69.10;100305.72;5013375;28;8886;-82
2022/12/17 18:26:34;;;;;;;;;80.75;62.25;;;;;6.83;67.44;100303.25;5042570;28;9127;-82
2022/12/17 18:29:08;;;;;;;;;75.50;59.00;;;;;7.24;66.14;100319.03;4993366;28;8896;-82
2022/12/17 18:31:40;;;;;;;;;76.75;59.50;;;;;7.11;65.60;100312.63;5009633;28;8870;-84
2022/12/17 18:34:12;;;;;;;;;81.25;61.50;;;;;6.80;65.88;100311.81;5023129;28;8868;-83
2022/12/17 18:36:45;;;;;;;;;80.50;60.25;;;;;6.64;66.37;100327.78;4996221;28;8949;-83
2022/12/17 18:39:16;;;;;;;;;67.75;56.75;;;;;6.34;67.87;100323.50;5008641;28;8959;-81
2022/12/17 18:44:40;;;;;;;;;67.00;54.50;;;;;6.83;66.88;100340.41;4972770;28;8853;-81
2022/12/17 18:47:10;;;;;;;;;69.00;54.25;;;;;7.01;65.57;100336.56;4989205;28;8852;-83
2022/12/17 18:49:39;;;;;;;;;76.75;58.25;;;;;7.00;66.08;100329.63;4989106;28;8864;-84
2022/12/17 18:52:09;;;;;;;;;72.00;57.75;;;;;7.01;65.90;100341.75;4973582;28;8862;-82
2022/12/17 18:54:44;;;;;;;;;70.50;54.00;;;;;7.04;65.53;100347.03;4947908;28;8878;-82
2022/12/17 18:57:13;;;;;;;;;66.75;53.50;;;;;7.33;64.22;100352.97;4953046;28;8915;-82
2022/12/17 18:59:42;;;;;;;;;69.25;52.25;;;;;7.52;65.09;100351.69;4937878;28;8864;-84
2022/12/17 19:02:13;;;;;;;;;60.50;48.75;;;;;7.23;63.88;100358.75;4969106;28;9723;-82
2022/12/17 19:04:42;;;;;;;;;66.00;53.25;;;;;7.20;64.51;100363.84;4937638;28;9747;-81
2022/12/17 19:07:13;;;;;;;;;70.25;53.00;;;;;7.21;65.14;100374.28;4961422;28;9012;-82
2022/12/17 19:09:42;;;;;;;;;67.50;55.25;;;;;7.10;64.45;100377.44;4949802;28;8940;-83
2022/12/17 19:12:11;;;;;;;;;66.50;52.50;;;;;6.82;65.81;100390.53;4950364;28;8877;-82
2022/12/17 19:14:41;;;;;;;;;63.75;52.50;;;;;7.20;65.23;100394.97;4969642;28;8875;-82
2022/12/17 19:17:10;;;;;;;;;66.75;47.50;;;;;7.54;65.00;100390.66;4984989;28;8952;-83
2022/12/17 19:19:39;;;;;;;;;68.00;52.00;;;;;7.40;64.54;100392.94;5024423;28;8943;-83
2022/12/17 19:22:08;;;;;;;;;74.00;58.75;;;;;7.55;63.76;100393.31;5018217;28;8869;-84
2022/12/17 19:24:38;;;;;;;;;65.25;53.25;;;;;7.41;63.17;100392.97;5048066;28;8874;-83
2022/12/17 19:27:07;;;;;;;;;68.00;53.00;;;;;7.41;63.35;100400.75;5025331;28;8858;-80
2022/12/17 19:29:36;;;;;;;;;67.50;52.50;;;;;7.01;64.68;100406.56;5009480;28;9615;-85
2022/12/17 19:32:05;;;;;;;;;74.00;57.00;;;;;7.02;65.06;100409.22;5025890;28;8862;-81
2022/12/17 19:34:33;;;;;;;;;64.25;52.75;;;;;7.47;64.64;100418.19;5000024;28;8836;-81
2022/12/17 19:37:03;;;;;;;;;65.25;48.00;;;;;7.29;64.17;100410.78;5028921;28;8851;-81
2022/12/17 19:39:32;;;;;;;;;75.50;57.50;;;;;6.98;64.83;100416.88;5029523;28;8859;-81
2022/12/17 19:42:02;;;;;;;;;67.25;52.75;;;;;6.44;67.10;100425.66;5024669;28;8889;-83
2022/12/17 19:44:31;;;;;;;;;67.00;55.00;;;;;6.81;66.60;100430.22;5010793;28;8873;-83
2022/12/17 19:47:00;;;;;;;;;61.50;51.50;;;;;6.63;66.66;100433.19;5019382;28;9576;-82
2022/12/17 19:49:29;;;;;;;;;64.25;48.75;;;;;7.16;65.75;100432.91;5029330;28;8882;-83
2022/12/17 19:51:58;;;;;;;;;60.75;49.00;;;;;6.98;64.81;100430.72;5029992;28;8866;-82
2022/12/17 19:54:26;;;;;;;;;57.75;50.00;;;;;6.64;66.62;100439.22;5014484;28;8862;-80
2022/12/17 19:56:55;;;;;;;;;67.25;54.00;;;;;7.26;64.56;100430.59;4999358;28;8884;-81
2022/12/17 19:59:27;;;;;;;;;61.00;49.50;;;;;6.95;65.21;100435.81;5013599;28;8890;-82
2022/12/17 20:01:56;;;;;;;;;60.25;49.25;;;;;6.43;67.06;100437.75;5030415;28;8851;-83
2022/12/17 20:04:25;;;;;;;;;65.25;51.25;;;;;6.19;67.73;100444.75;5012043;28;8868;-82
2022/12/17 20:06:54;;;;;;;;;66.75;54.75;;;;;5.93;68.33;100454.25;5044416;28;8866;-82
2022/12/17 20:09:23;;;;;;;;;71.50;56.25;;;;;6.01;68.19;100458.88;5026238;28;8846;-82
2022/12/17 20:11:52;;;;;;;;;64.25;53.50;;;;;5.76;68.98;100459.72;4993318;28;8847;-84
2022/12/17 20:14:25;;;;;;;;;66.75;55.25;;;;;5.74;69.34;100458.78;5008795;28;8861;-85
2022/12/17 20:16:57;;;;;;;;;69.75;55.00;;;;;5.89;68.57;100467.91;5041826;28;8963;-84
2022/12/17 20:19:29;;;;;;;;;69.25;55.25;;;;;5.70;69.40;100477.63;4977937;28;8863;-82
2022/12/17 20:22:01;;;;;;;;;65.50;50.75;;;;;5.62;69.44;100479.97;5044864;28;9002;-83
2022/12/17 20:24:30;;;;;;;;;71.75;56.50;;;;;5.48;69.77;100483.75;5023206;28;8846;-80
2022/12/17 20:27:00;;;;;;;;;69.50;56.25;;;;;5.68;69.59;100487.06;5024747;28;8857;-81
2022/12/17 20:29:30;;;;;;;;;67.25;54.00;;;;;5.56;69.23;100486.66;5025959;28;8839;-82
2022/12/17 20:32:01;;;;;;;;;70.00;54.25;;;;;5.79;69.22;100485.72;5025306;28;9698;-82
2022/12/17 20:34:31;;;;;;;;;67.50;53.00;;;;;5.75;68.40;100493.34;5028839;28;8871;-81
2022/12/17 20:37:00;;;;;;;;;70.00;53.50;;;;;5.54;69.86;100496.03;5013041;28;8843;-82
2022/12/17 20:39:29;;;;;;;;;65.25;51.75;;;;;5.59;68.96;100490.19;5011699;28;8851;-82
2022/12/17 20:41:58;;;;;;;;;65.50;53.00;;;;;5.55;69.51;100497.81;4975473;28;8894;-83
2022/12/17 20:44:27;;;;;;;;;67.25;54.75;;;;;5.55;68.70;100508.16;5025661;28;9070;-79
2022/12/17 20:46:57;;;;;;;;;83.00;65.33;;;;;5.57;69.33;100498.75;4992760;28;8866;-83
2022/12/17 20:49:27;;;;;;;;;69.75;54.50;;;;;5.61;69.38;100508.38;5023321;28;9030;-81
2022/12/17 20:51:56;;;;;;;;;66.25;55.00;;;;;5.74;68.65;100514.84;4993793;28;8866;-83
2022/12/17 20:54:25;;;;;;;;;73.00;57.50;;;;;5.63;68.88;100499.84;4993356;28;8858;-82
2022/12/17 20:56:54;;;;;;;;;64.75;53.25;;;;;5.55;68.95;100516.78;5009349;28;8869;-84
2022/12/17 20:59:23;;;;;;;;;67.25;52.25;;;;;5.64;68.99;100519.72;5028114;28;8840;-81
2022/12/17 21:01:52;;;;;;;;;70.00;51.75;;;;;5.83;68.53;100528.13;5030855;28;8848;-83
2022/12/17 21:04:24;;;;;;;;;62.75;48.75;;;;;5.43;69.49;100532.75;5007625;28;9581;-81
2022/12/17 21:06:54;;;;;;;;;68.25;53.75;;;;;5.89;69.26;100536.09;4991882;28;8995;-82
2022/12/17 21:09:24;;;;;;;;;64.00;51.00;;;;;6.34;68.22;100542.78;5009510;28;8870;-82
2022/12/17 21:11:53;;;;;;;;;67.00;52.00;;;;;6.53;66.43;100546.88;5025638;28;8886;-83
2022/12/17 21:14:22;;;;;;;;;63.25;47.75;;;;;6.40;67.20;100553.34;5008833;28;8858;-82
2022/12/17 21:16:51;;;;;;;;;69.50;56.25;;;;;6.12;67.72;100559.31;4992840;28;8842;-83
2022/12/17 21:19:20;;;;;;;;;67.50;55.75;;;;;6.25;67.39;100557.19;4992328;28;8858;-82
2022/12/17 21:21:49;;;;;;;;;72.00;55.25;;;;;6.03;67.54;100558.19;4991846;28;8874;-82
2022/12/17 21:24:19;;;;;;;;;65.00;53.25;;;;;5.51;68.51;100564.09;5008497;28;8968;-82
2022/12/17 21:26:48;;;;;;;;;67.00;52.50;;;;;5.70;68.86;100568.22;5008189;28;8842;-82
2022/12/17 21:29:17;;;;;;;;;63.75;53.00;;;;;5.86;67.70;100562.75;5008102;28;8892;-83
2022/12/17 21:31:48;;;;;;;;;58.00;49.50;;;;;5.19;69.67;100570.66;5043483;28;8832;-83
2022/12/17 21:34:20;;;;;;;;;62.25;51.50;;;;;5.26;69.46;100578.69;5009402;28;8890;-81
2022/12/17 21:36:50;;;;;;;;;35.50;24.25;;;;;5.72;67.92;100574.31;4969692;28;8844;-82
2022/12/17 21:39:21;;;;;;;;;73.00;57.50;;;;;5.38;68.88;100567.91;4970870;28;8935;-83
2022/12/17 21:44:37;;;;;;;;;65.25;53.75;;;;;5.85;67.37;100571.34;4987185;28;8845;-83
2022/12/17 21:47:07;;;;;;;;;64.25;52.25;;;;;6.24;65.56;100576.16;4973923;28;8865;-84
2022/12/17 21:49:36;;;;;;;;;68.00;52.25;;;;;5.66;66.63;100581.88;4974598;28;8861;-83
2022/12/17 21:52:05;;;;;;;;;73.50;58.00;;;;;5.70;66.81;100590.63;4987448;28;8866;-84
2022/12/17 21:54:39;;;;;;;;;58.25;46.75;;;;;5.92;66.36;100580.22;4961697;28;8880;-82
2022/12/17 21:57:08;;;;;;;;;67.50;53.50;;;;;5.57;67.59;100581.53;4951436;28;8864;-83
2022/12/17 21:59:37;;;;;;;;;70.75;53.25;;;;;6.02;67.40;100581.44;4951192;28;8880;-81
2022/12/17 22:02:06;;;;;;;;;65.00;52.75;;;;;6.07;66.02;100589.34;4976487;28;8890;-82
2022/12/17 22:04:36;;;;;;;;;64.25;51.00;;;;;5.84;66.91;100590.28;4954362;28;8871;-83
2022/12/17 22:07:05;;;;;;;;;72.75;53.50;;;;;5.78;67.11;100590.06;4954215;28;8852;-81
2022/12/17 22:09:40;;;;;;;;;71.25;55.75;;;;;6.38;65.53;100594.75;4965300;28;8998;-81
2022/12/17 22:15:15;;;;;;;;;63.50;51.50;;;;;6.87;63.92;100585.09;4976639;28;8882;-82
2022/12/17 22:17:45;;;;;;;;;63.50;52.00;;;;;6.39;64.21;100599.09;5009313;28;8854;-81
2022/12/17 22:20:16;;;;;;;;;63.00;49.25;;;;;6.74;64.55;100594.19;5009474;28;9615;-82
2022/12/17 22:22:45;;;;;;;;;63.50;51.50;;;;;6.16;65.29;100606.09;5012545;28;8822;-83
2022/12/17 22:25:16;;;;;;;;;59.25;50.25;;;;;6.10;65.51;100613.66;4994405;28;8866;-82
2022/12/17 22:27:45;;;;;;;;;65.75;50.25;;;;;6.16;66.25;100619.06;5026876;28;8854;-82
2022/12/17 22:33:04;;;;;;;;;63.75;51.00;;;;;5.49;67.25;100630.41;5012140;28;8864;-82
2022/12/17 22:35:52;;;;;;;;;63.00;51.00;;;;;6.18;66.14;100612.22;5013789;28;8882;-84
2022/12/17 22:38:42;;;;;;;;;70.25;53.00;;;;;5.31;67.39;100622.81;4997736;28;8868;-82
2022/12/17 22:44:38;;;;;;;;;66.25;55.00;;;;;5.11;68.12;100628.97;5017912;28;8896;-82
2022/12/17 22:47:21;;;;;;;;;66.75;50.25;;;;;5.03;68.80;100636.41;5021884;28;8987;-84
2022/12/17 22:49:50;;;;;;;;;68.00;54.25;;;;;5.21;67.29;100636.22;5022850;28;8927;-81
2022/12/17 22:52:20;;;;;;;;;70.25;57.75;;;;;5.01;68.28;100654.44;5024512;28;8861;-83
2022/12/17 22:54:49;;;;;;;;;70.25;54.00;;;;;5.14;67.95;100649.72;5020115;28;8866;-84
2022/12/17 22:57:20;;;;;;;;;53.50;44.75;;;;;5.17;67.09;100653.31;5015495;28;8843;-82
2022/12/17 23:00:13;;;;;;;;;62.25;48.75;;;;;5.01;68.21;100658.72;5017256;28;8838;-83
2022/12/17 23:02:42;;;;;;;;;67.50;54.25;;;;;4.94;68.42;100647.25;5033301;28;9000;-84
2022/12/17 23:05:12;;;;;;;;;65.50;50.75;;;;;5.09;68.12;100654.75;5029948;28;8891;-82
2022/12/17 23:07:40;;;;;;;;;66.50;54.75;;;;;5.02;68.00;100661.34;5013502;28;8994;-82
2022/12/17 23:10:10;;;;;;;;;65.25;51.50;;;;;5.17;67.36;100662.78;5030033;28;8948;-83
2022/12/17 23:12:53;;;;;;;;;62.75;46.25;;;;;5.18;66.98;100660.28;5029607;28;8863;-82
2022/12/17 23:15:26;;;;;;;;;59.75;50.25;;;;;4.99;67.53;100671.59;5063151;28;8894;-81
2022/12/17 23:17:57;;;;;;;;;55.50;45.50;;;;;4.75;67.72;100673.19;5008662;28;8870;-83
2022/12/17 23:20:29;;;;;;;;;65.75;53.00;;;;;4.69;68.44;100677.28;5025828;28;8880;-82
2022/12/17 23:22:59;;;;;;;;;63.00;47.75;;;;;4.67;68.62;100678.91;5026179;28;8854;-80
2022/12/17 23:25:28;;;;;;;;;60.25;46.75;;;;;4.97;66.85;100675.81;5026210;28;8849;-81
2022/12/17 23:27:59;;;;;;;;;57.75;47.75;;;;;4.72;67.89;100679.09;4993156;28;8880;-83
2022/12/17 23:30:28;;;;;;;;;57.25;49.00;;;;;4.55;68.17;100685.25;4993122;28;8842;-83
2022/12/17 23:32:56;;;;;;;;;68.00;51.25;;;;;4.83;67.43;100683.00;4993925;28;8869;-81
2022/12/17 23:35:25;;;;;;;;;69.00;51.75;;;;;4.79;67.71;100683.69;5045302;28;8867;-81
2022/12/17 23:37:54;;;;;;;;;60.50;44.75;;;;;4.73;67.82;100682.56;5012345;28;8889;-83
2022/12/17 23:40:24;;;;;;;;;62.25;49.00;;;;;4.73;68.14;100685.16;5012218;28;8867;-80
2022/12/17 23:42:53;;;;;;;;;59.25;48.25;;;;;4.84;67.83;100689.06;5028348;28;8966;-83
2022/12/17 23:45:23;;;;;;;;;55.25;46.75;;;;;4.35;68.28;100689.56;5011668;28;8860;-82
2022/12/17 23:47:52;;;;;;;;;56.00;47.00;;;;;4.41;68.76;100695.00;5011391;28;8871;-81
2022/12/17 23:50:21;;;;;;;;;62.25;52.25;;;;;4.49;69.17;100696.22;5010846;28;8866;-83
2022/12/17 23:52:50;;;;;;;;;57.00;45.75;;;;;4.24;69.68;100697.75;5011507;28;8880;-81
2022/12/17 23:55:19;;;;;;;;;50.50;43.75;;;;;4.33;69.74;100696.38;4978695;28;8878;-81
2022/12/17 23:57:47;;;;;;;;;35.75;35.75;;;;;4.66;69.00;100697.81;5008351;28;8867;-81
